Time;durP1;ratioP1;P1;durP2;ratioP2;P2;SDS_P1;SDS_P2;PMS_P1;PMS_P2;Temp;Humidity;BMP_temperature;BMP_pressure;BME280_temperature;BME280_humidity;BME280_pressure;Samples;Min_cycle;Max_cycle;Signal;HPM_P1;HPM_P2
2023/10/27 00:01:33;;;;;;;0.73;0.35;;;;;;;;;;5059173;28;20442;-76
2023/10/27 00:03:59;;;;;;;0.35;0.30;;;;;;;;;;5059300;28;20057;-76
2023/10/27 00:06:27;;;;;;;0.50;0.30;;;;;;;;;;5061438;28;20041;-77
2023/10/27 00:08:53;;;;;;;0.28;0.28;;;;;;;;;;5059314;28;20029;-77
2023/10/27 00:11:19;;;;;;;0.30;0.30;;;;;;;;;;5058211;28;20024;-76
2023/10/27 00:13:45;;;;;;;0.98;0.30;;;;;;;;;;5058355;28;20025;-75
2023/10/27 00:16:12;;;;;;;0.68;0.45;;;;;;;;;;5057130;28;20168;-76
2023/10/27 00:18:38;;;;;;;0.47;0.40;;;;;;;;;;5056914;28;20561;-76
2023/10/27 00:21:04;;;;;;;1.35;0.40;;;;;;;;;;5056368;28;20028;-77
2023/10/27 00:23:32;;;;;;;0.90;0.30;;;;;;;;;;5058721;28;20021;-76
2023/10/27 00:25:58;;;;;;;2.20;0.30;;;;;;;;;;5057297;28;20395;-76
2023/10/27 00:28:24;;;;;;;0.90;0.40;;;;;;;;;;5059022;28;20052;-76
2023/10/27 00:30:50;;;;;;;0.52;0.32;;;;;;;;;;5060649;28;20372;-77
2023/10/27 00:33:16;;;;;;;0.30;0.30;;;;;;;;;;5057765;28;20051;-77
2023/10/27 00:35:42;;;;;;;0.30;0.30;;;;;;;;;;5062702;28;20111;-77
2023/10/27 00:38:08;;;;;;;0.20;0.20;;;;;;;;;;5070899;28;20035;-74
2023/10/27 00:40:34;;;;;;;0.70;0.50;;;;;;;;;;5072494;28;20041;-76
2023/10/27 00:43:04;;;;;;;1.27;0.50;;;;;;;;;;5066589;28;20039;-75
2023/10/27 00:45:30;;;;;;;1.58;0.47;;;;;;;;;;5076394;28;20055;-74
2023/10/27 00:47:57;;;;;;;0.75;0.45;;;;;;;;;;5076712;28;20039;-75
2023/10/27 00:50:23;;;;;;;0.77;0.60;;;;;;;;;;5074333;28;20037;-73
2023/10/27 00:52:49;;;;;;;1.63;0.57;;;;;;;;;;5071352;28;20017;-74
2023/10/27 00:55:15;;;;;;;1.65;0.50;;;;;;;;;;5075465;28;20033;-75
2023/10/27 00:57:42;;;;;;;1.30;0.47;;;;;;;;;;5069850;28;20073;-74
2023/10/27 01:00:08;;;;;;;1.95;0.60;;;;;;;;;;5073975;28;20028;-74
2023/10/27 01:02:34;;;;;;;1.80;0.80;;;;;;;;;;5076025;28;20032;-76
2023/10/27 01:05:00;;;;;;;2.10;0.70;;;;;;;;;;5069130;28;20022;-75
2023/10/27 01:07:26;;;;;;;1.42;0.52;;;;;;;;;;5075781;28;20040;-74
2023/10/27 01:09:52;;;;;;;1.73;0.73;;;;;;;;;;5076512;28;20025;-75
2023/10/27 01:12:19;;;;;;;1.67;1.00;;;;;;;;;;5070598;28;20101;-75
2023/10/27 01:14:45;;;;;;;1.40;0.85;;;;;;;;;;5068579;28;20037;-75
2023/10/27 01:17:11;;;;;;;1.25;0.70;;;;;;;;;;5069811;28;20032;-78
2023/10/27 01:19:37;;;;;;;2.47;0.85;;;;;;;;;;5065956;28;20035;-76
2023/10/27 01:22:03;;;;;;;5.85;1.27;;;;;;;;;;5069033;28;20029;-76
2023/10/27 01:24:29;;;;;;;2.75;0.82;;;;;;;;;;5057354;28;20451;-76
2023/10/27 01:26:56;;;;;;;6.68;0.90;;;;;;;;;;5070277;28;20105;-75
2023/10/27 01:29:27;;;;;;;5.60;1.50;;;;;;;;;;5063160;28;20017;-74
2023/10/27 01:31:53;;;;;;;2.78;1.35;;;;;;;;;;5061410;28;20021;-77
2023/10/27 01:34:19;;;;;;;4.85;1.10;;;;;;;;;;5060970;28;20028;-76
2023/10/27 01:36:45;;;;;;;3.38;1.20;;;;;;;;;;5062783;28;20170;-76
2023/10/27 01:39:12;;;;;;;3.15;1.13;;;;;;;;;;5057554;28;20438;-76
2023/10/27 01:41:39;;;;;;;6.07;1.98;;;;;;;;;;5057588;28;20071;-76
2023/10/27 01:44:05;;;;;;;5.00;1.30;;;;;;;;;;5057628;28;20033;-76
2023/10/27 01:46:31;;;;;;;4.18;1.60;;;;;;;;;;5055721;28;20036;-77
2023/10/27 01:48:57;;;;;;;8.30;2.05;;;;;;;;;;5054190;28;20448;-77
2023/10/27 01:51:23;;;;;;;5.20;1.60;;;;;;;;;;5047432;28;20060;-76
2023/10/27 01:53:49;;;;;;;2.53;1.85;;;;;;;;;;5048419;28;20490;-76
2023/10/27 01:56:15;;;;;;;7.32;4.90;;;;;;;;;;5058330;28;20032;-77
2023/10/27 01:58:44;;;;;;;5.82;3.20;;;;;;;;;;5058708;28;20029;-77
2023/10/27 02:01:10;;;;;;;4.15;2.70;;;;;;;;;;5058947;28;20025;-76
2023/10/27 02:03:36;;;;;;;3.05;2.08;;;;;;;;;;5056324;28;20025;-76
2023/10/27 02:06:02;;;;;;;4.88;2.05;;;;;;;;;;5055296;28;20456;-75
2023/10/27 02:08:28;;;;;;;2.67;1.85;;;;;;;;;;5053439;28;20037;-76
2023/10/27 02:10:54;;;;;;;3.45;2.42;;;;;;;;;;5058499;28;20033;-76
2023/10/27 02:13:21;;;;;;;3.58;2.00;;;;;;;;;;5057706;28;20028;-75
2023/10/27 02:15:47;;;;;;;3.28;2.08;;;;;;;;;;5055998;28;20025;-75
2023/10/27 02:18:13;;;;;;;2.58;1.92;;;;;;;;;;5058329;28;20040;-76
2023/10/27 02:20:39;;;;;;;2.72;1.48;;;;;;;;;;5059576;28;20029;-76
2023/10/27 02:23:05;;;;;;;3.70;2.30;;;;;;;;;;5077496;28;20084;-76
2023/10/27 02:25:31;;;;;;;4.10;2.50;;;;;;;;;;5074288;28;20040;-75
2023/10/27 02:27:57;;;;;;;2.08;1.30;;;;;;;;;;5085952;28;20108;-75
2023/10/27 02:30:23;;;;;;;3.97;1.80;;;;;;;;;;5069176;28;20044;-74
2023/10/27 02:32:49;;;;;;;6.30;1.50;;;;;;;;;;5065043;28;20013;-75
2023/10/27 02:35:15;;;;;;;2.58;1.40;;;;;;;;;;5059835;28;20106;-75
2023/10/27 02:37:41;;;;;;;1.75;1.27;;;;;;;;;;5057391;28;20043;-75
2023/10/27 02:40:07;;;;;;;1.33;1.20;;;;;;;;;;5065611;28;20056;-76
2023/10/27 02:42:33;;;;;;;2.30;1.13;;;;;;;;;;5064909;28;20032;-76
2023/10/27 02:44:59;;;;;;;1.67;1.00;;;;;;;;;;5063791;28;20028;-76
2023/10/27 02:47:25;;;;;;;1.83;1.02;;;;;;;;;;5062908;28;20021;-76
2023/10/27 02:49:51;;;;;;;1.42;0.90;;;;;;;;;;5059764;28;20021;-76
2023/10/27 02:52:17;;;;;;;2.50;1.30;;;;;;;;;;5060003;28;20471;-75
2023/10/27 02:54:43;;;;;;;3.85;1.77;;;;;;;;;;5059926;28;20047;-76
2023/10/27 02:57:09;;;;;;;3.33;1.67;;;;;;;;;;5058355;28;20510;-75
2023/10/27 02:59:36;;;;;;;3.38;1.58;;;;;;;;;;5069574;28;20021;-76
2023/10/27 03:02:02;;;;;;;5.55;1.80;;;;;;;;;;5059576;28;20021;-75
2023/10/27 03:04:28;;;;;;;5.22;1.80;;;;;;;;;;5058670;28;20036;-75
2023/10/27 03:06:54;;;;;;;2.33;1.75;;;;;;;;;;5049353;28;20167;-76
2023/10/27 03:09:20;;;;;;;2.17;1.48;;;;;;;;;;5049851;28;20064;-75
2023/10/27 03:11:46;;;;;;;3.13;1.73;;;;;;;;;;5058875;28;20059;-75
2023/10/27 03:14:12;;;;;;;7.00;2.65;;;;;;;;;;5061584;28;20025;-76
2023/10/27 03:16:38;;;;;;;4.68;2.08;;;;;;;;;;5052508;28;20029;-74
2023/10/27 03:19:04;;;;;;;5.28;2.60;;;;;;;;;;5058827;28;20060;-76
2023/10/27 03:21:30;;;;;;;2.15;1.70;;;;;;;;;;5060930;28;20036;-76
2023/10/27 03:23:56;;;;;;;3.13;1.80;;;;;;;;;;5062372;28;20036;-77
2023/10/27 03:26:22;;;;;;;5.32;2.58;;;;;;;;;;5061060;28;20144;-75
2023/10/27 03:28:49;;;;;;;4.57;2.70;;;;;;;;;;5079156;28;20036;-76
2023/10/27 03:31:15;;;;;;;6.65;3.15;;;;;;;;;;5052497;28;20025;-76
2023/10/27 03:33:41;;;;;;;2.97;2.20;;;;;;;;;;5048850;28;20040;-75
2023/10/27 03:36:07;;;;;;;3.08;2.00;;;;;;;;;;5054082;28;20056;-76
2023/10/27 03:38:34;;;;;;;3.28;1.95;;;;;;;;;;5058613;28;20041;-76
2023/10/27 03:41:00;;;;;;;3.53;1.88;;;;;;;;;;5053955;28;20364;-77
2023/10/27 03:43:26;;;;;;;2.53;1.80;;;;;;;;;;5059920;28;20032;-76
2023/10/27 03:45:52;;;;;;;1.23;1.17;;;;;;;;;;5063719;28;20017;-76
2023/10/27 03:48:18;;;;;;;3.63;1.98;;;;;;;;;;5063185;28;20025;-77
2023/10/27 03:50:44;;;;;;;3.50;2.17;;;;;;;;;;5059221;28;20033;-76
2023/10/27 03:53:10;;;;;;;3.20;2.70;;;;;;;;;;5060913;28;20026;-76
2023/10/27 03:55:36;;;;;;;5.72;2.50;;;;;;;;;;5053803;28;20027;-75
2023/10/27 03:58:15;;;;;;;4.88;2.22;;;;;;;;;;5053526;28;20032;-75
2023/10/27 04:00:41;;;;;;;3.38;2.20;;;;;;;;;;5034455;28;20061;-76
2023/10/27 04:03:07;;;;;;;2.63;2.03;;;;;;;;;;5035764;28;20072;-76
2023/10/27 04:05:33;;;;;;;2.60;2.40;;;;;;;;;;5047143;28;20511;-76
2023/10/27 04:07:59;;;;;;;2.22;1.92;;;;;;;;;;5037790;28;20076;-76
2023/10/27 04:10:31;;;;;;;2.28;2.05;;;;;;;;;;5035026;28;20496;-75
2023/10/27 04:12:57;;;;;;;3.35;1.88;;;;;;;;;;5034445;28;20017;-76
2023/10/27 04:15:23;;;;;;;3.90;1.83;;;;;;;;;;5033053;28;20444;-77
2023/10/27 04:17:49;;;;;;;1.70;1.60;;;;;;;;;;5036844;28;20067;-75
2023/10/27 04:20:15;;;;;;;1.77;1.45;;;;;;;;;;5037236;28;20025;-76
2023/10/27 04:22:41;;;;;;;1.20;1.02;;;;;;;;;;5034495;28;20066;-76
2023/10/27 04:25:09;;;;;;;1.20;1.10;;;;;;;;;;5044878;28;20071;-75
2023/10/27 04:27:36;;;;;;;2.55;1.10;;;;;;;;;;5053359;28;20013;-73
2023/10/27 04:30:07;;;;;;;0.90;0.90;;;;;;;;;;5062139;28;20018;-74
2023/10/27 04:32:33;;;;;;;1.25;1.05;;;;;;;;;;5057737;28;20036;-72
2023/10/27 04:34:59;;;;;;;0.70;0.70;;;;;;;;;;5070500;28;20037;-72
2023/10/27 04:37:25;;;;;;;1.45;0.90;;;;;;;;;;5059328;28;20044;-74
2023/10/27 04:39:54;;;;;;;1.10;1.00;;;;;;;;;;5052462;28;20021;-73
2023/10/27 04:42:20;;;;;;;1.10;0.90;;;;;;;;;;5056802;28;20024;-73
2023/10/27 04:44:46;;;;;;;0.80;0.80;;;;;;;;;;5051785;28;20033;-73
2023/10/27 04:47:13;;;;;;;1.23;1.00;;;;;;;;;;5054496;28;20033;-73
2023/10/27 04:49:39;;;;;;;1.40;0.95;;;;;;;;;;5050882;28;20048;-72
2023/10/27 04:52:05;;;;;;;0.80;0.80;;;;;;;;;;5053861;28;20483;-73
2023/10/27 04:54:34;;;;;;;0.73;0.73;;;;;;;;;;5053809;28;20055;-73
2023/10/27 04:57:03;;;;;;;1.13;0.90;;;;;;;;;;5053083;28;20028;-73
2023/10/27 04:59:29;;;;;;;1.15;0.80;;;;;;;;;;5052174;28;20495;-73
2023/10/27 05:01:55;;;;;;;1.30;0.88;;;;;;;;;;5037581;28;20029;-74
2023/10/27 05:04:21;;;;;;;0.60;0.60;;;;;;;;;;5045030;28;20029;-73
2023/10/27 05:06:47;;;;;;;0.57;0.57;;;;;;;;;;5052758;28;20920;-73
2023/10/27 05:09:14;;;;;;;0.60;0.60;;;;;;;;;;5052152;28;20036;-72
2023/10/27 05:11:43;;;;;;;1.50;0.70;;;;;;;;;;5051022;28;20051;-73
2023/10/27 05:14:09;;;;;;;0.68;0.57;;;;;;;;;;5048852;28;20029;-72
2023/10/27 05:16:35;;;;;;;0.95;0.80;;;;;;;;;;5050890;28;20031;-73
2023/10/27 05:19:04;;;;;;;0.88;0.88;;;;;;;;;;5051838;28;20033;-73
2023/10/27 05:21:30;;;;;;;0.73;0.73;;;;;;;;;;5051646;28;20036;-74
2023/10/27 05:23:57;;;;;;;0.75;0.75;;;;;;;;;;5047557;28;20025;-74
2023/10/27 05:26:24;;;;;;;0.55;0.55;;;;;;;;;;5060453;28;20035;-73
2023/10/27 05:28:50;;;;;;;0.55;0.55;;;;;;;;;;5052285;28;20056;-75
2023/10/27 05:31:17;;;;;;;1.02;0.90;;;;;;;;;;5044985;28;20022;-73
2023/10/27 05:33:43;;;;;;;0.70;0.70;;;;;;;;;;5042569;28;20021;-73
2023/10/27 05:36:09;;;;;;;0.65;0.65;;;;;;;;;;5050468;28;20537;-72
2023/10/27 05:38:35;;;;;;;0.63;0.52;;;;;;;;;;5054752;28;20491;-75
2023/10/27 05:41:01;;;;;;;1.48;0.60;;;;;;;;;;5052523;28;20104;-73
2023/10/27 05:43:28;;;;;;;0.50;0.50;;;;;;;;;;5051368;28;20021;-74
2023/10/27 05:45:54;;;;;;;0.50;0.50;;;;;;;;;;5050996;28;20174;-73
2023/10/27 05:48:20;;;;;;;0.40;0.40;;;;;;;;;;5048448;28;20029;-73
2023/10/27 05:50:46;;;;;;;0.50;0.40;;;;;;;;;;5052209;28;20536;-73
2023/10/27 05:53:12;;;;;;;1.50;0.60;;;;;;;;;;5048472;28;20018;-72
2023/10/27 05:55:38;;;;;;;0.57;0.47;;;;;;;;;;5049730;28;20054;-73
2023/10/27 05:58:05;;;;;;;0.20;0.20;;;;;;;;;;5056752;28;20025;-72
2023/10/27 06:00:32;;;;;;;0.40;0.38;;;;;;;;;;5054914;28;20081;-75
2023/10/27 06:02:58;;;;;;;0.93;0.60;;;;;;;;;;5059516;28;20081;-73
2023/10/27 06:05:24;;;;;;;0.40;0.40;;;;;;;;;;5053608;28;20025;-74
2023/10/27 06:07:51;;;;;;;0.45;0.43;;;;;;;;;;5059116;28;20021;-73
2023/10/27 06:10:17;;;;;;;0.38;0.32;;;;;;;;;;5061392;28;20029;-73
2023/10/27 06:12:43;;;;;;;0.50;0.50;;;;;;;;;;5055371;28;20029;-72
2023/10/27 06:15:09;;;;;;;0.40;0.40;;;;;;;;;;5049342;28;20018;-72
2023/10/27 06:17:35;;;;;;;0.43;0.30;;;;;;;;;;5055984;28;20032;-72
2023/10/27 06:20:02;;;;;;;0.20;0.20;;;;;;;;;;5062616;28;20028;-74
2023/10/27 06:22:29;;;;;;;0.22;0.22;;;;;;;;;;5056791;28;20494;-73
2023/10/27 06:24:55;;;;;;;0.30;0.30;;;;;;;;;;5062477;28;20047;-73
2023/10/27 06:27:21;;;;;;;0.40;0.40;;;;;;;;;;5057924;28;20449;-72
2023/10/27 06:29:47;;;;;;;0.40;0.40;;;;;;;;;;5062276;28;20529;-72
2023/10/27 06:32:14;;;;;;;0.30;0.30;;;;;;;;;;5052264;28;20488;-73
2023/10/27 06:34:40;;;;;;;0.20;0.20;;;;;;;;;;5052206;28;20043;-73
2023/10/27 06:37:07;;;;;;;0.63;0.45;;;;;;;;;;5054885;28;20430;-72
2023/10/27 06:39:34;;;;;;;0.50;0.50;;;;;;;;;;5059778;28;20025;-73
2023/10/27 06:42:00;;;;;;;0.52;0.52;;;;;;;;;;5060613;28;20449;-74
2023/10/27 06:44:27;;;;;;;0.98;0.40;;;;;;;;;;5059443;28;20025;-74
2023/10/27 06:46:53;;;;;;;0.50;0.50;;;;;;;;;;5053100;28;20359;-73
2023/10/27 06:49:20;;;;;;;0.60;0.60;;;;;;;;;;5059031;28;20036;-74
2023/10/27 06:51:47;;;;;;;0.60;0.60;;;;;;;;;;5055718;28;20021;-73
2023/10/27 06:54:13;;;;;;;0.80;0.80;;;;;;;;;;5069329;28;20052;-75
2023/10/27 06:56:39;;;;;;;0.50;0.50;;;;;;;;;;5074567;28;20097;-74
2023/10/27 06:59:06;;;;;;;0.43;0.43;;;;;;;;;;5079837;28;20455;-76
2023/10/27 07:01:39;;;;;;;0.40;0.40;;;;;;;;;;5064313;28;20941;-76
2023/10/27 07:04:08;;;;;;;0.82;0.55;;;;;;;;;;5068192;28;20036;-76
2023/10/27 07:06:34;;;;;;;0.50;0.50;;;;;;;;;;5056255;28;20047;-76
2023/10/27 07:09:00;;;;;;;0.60;0.60;;;;;;;;;;5076582;28;20036;-76
2023/10/27 07:11:27;;;;;;;0.50;0.47;;;;;;;;;;5076795;28;20036;-76
2023/10/27 07:13:53;;;;;;;0.55;0.55;;;;;;;;;;5087571;28;20095;-75
2023/10/27 07:16:19;;;;;;;0.80;0.70;;;;;;;;;;5079788;28;20021;-74
2023/10/27 07:18:45;;;;;;;0.90;0.50;;;;;;;;;;5075834;28;20086;-75
2023/10/27 07:21:12;;;;;;;0.60;0.60;;;;;;;;;;5073848;28;20040;-78
2023/10/27 07:23:38;;;;;;;0.30;0.30;;;;;;;;;;5090767;22;20522;-74
2023/10/27 07:26:11;;;;;;;0.55;0.30;;;;;;;;;;5057016;28;20035;-74
2023/10/27 07:28:39;;;;;;;0.40;0.40;;;;;;;;;;5079083;28;20020;-76
2023/10/27 07:31:05;;;;;;;0.45;0.40;;;;;;;;;;5076495;28;20012;-75
2023/10/27 07:33:31;;;;;;;0.40;0.40;;;;;;;;;;5064265;28;20027;-76
2023/10/27 07:35:57;;;;;;;0.30;0.30;;;;;;;;;;5077784;28;20084;-76
2023/10/27 07:38:26;;;;;;;0.85;0.50;;;;;;;;;;5075401;28;20021;-75
2023/10/27 07:40:55;;;;;;;0.50;0.50;;;;;;;;;;5075544;28;20028;-76
2023/10/27 07:43:21;;;;;;;0.50;0.50;;;;;;;;;;5075042;28;20099;-77
2023/10/27 07:45:48;;;;;;;0.82;0.50;;;;;;;;;;5057792;28;20042;-75
2023/10/27 07:48:14;;;;;;;0.80;0.73;;;;;;;;;;5057256;28;20021;-75
2023/10/27 07:50:40;;;;;;;0.45;0.45;;;;;;;;;;5077658;28;20021;-75
2023/10/27 07:53:07;;;;;;;0.60;0.60;;;;;;;;;;5078894;28;20028;-76
2023/10/27 07:55:33;;;;;;;0.73;0.60;;;;;;;;;;5078205;28;20098;-75
2023/10/27 07:57:59;;;;;;;0.38;0.38;;;;;;;;;;5075378;28;20482;-75
2023/10/27 08:00:26;;;;;;;0.40;0.40;;;;;;;;;;5057036;28;20374;-76
2023/10/27 08:02:52;;;;;;;0.68;0.60;;;;;;;;;;5075377;28;20059;-75
2023/10/27 08:05:19;;;;;;;0.47;0.47;;;;;;;;;;5075812;28;20394;-75
2023/10/27 08:07:45;;;;;;;0.60;0.30;;;;;;;;;;5075461;28;20025;-75
2023/10/27 08:10:11;;;;;;;0.40;0.40;;;;;;;;;;5095623;28;20020;-76
2023/10/27 08:12:37;;;;;;;1.60;1.40;;;;;;;;;;5075986;28;20025;-77
2023/10/27 08:15:07;;;;;;;0.70;0.70;;;;;;;;;;5072872;28;20391;-76
2023/10/27 08:17:33;;;;;;;0.90;0.85;;;;;;;;;;5074589;28;20065;-76
2023/10/27 08:20:00;;;;;;;0.90;0.75;;;;;;;;;;5074776;28;20128;-76
2023/10/27 08:22:26;;;;;;;0.45;0.45;;;;;;;;;;5056895;28;20514;-77
2023/10/27 08:24:52;;;;;;;1.02;0.70;;;;;;;;;;5075753;28;20059;-77
2023/10/27 08:27:18;;;;;;;0.52;0.52;;;;;;;;;;5078936;28;20027;-76
2023/10/27 08:29:44;;;;;;;0.50;0.50;;;;;;;;;;5067634;28;20048;-75
2023/10/27 08:32:11;;;;;;;2.10;0.50;;;;;;;;;;5054020;28;20021;-76
2023/10/27 08:34:37;;;;;;;0.82;0.65;;;;;;;;;;5074071;28;20016;-77
2023/10/27 08:37:04;;;;;;;0.88;0.40;;;;;;;;;;5058421;28;20093;-76
2023/10/27 08:39:33;;;;;;;1.48;0.52;;;;;;;;;;5073009;28;20406;-77
2023/10/27 08:42:00;;;;;;;0.82;0.50;;;;;;;;;;5074110;28;20024;-77
2023/10/27 08:44:26;;;;;;;0.65;0.60;;;;;;;;;;5074058;28;20035;-75
2023/10/27 08:46:55;;;;;;;0.70;0.50;;;;;;;;;;5055469;28;20081;-76
2023/10/27 08:49:22;;;;;;;4.03;0.60;;;;;;;;;;5073511;28;20029;-76
2023/10/27 08:51:48;;;;;;;0.40;0.40;;;;;;;;;;5073384;28;20029;-75
2023/10/27 08:54:15;;;;;;;0.32;0.32;;;;;;;;;;5073463;28;20061;-76
2023/10/27 08:56:41;;;;;;;0.30;0.30;;;;;;;;;;5054909;28;20451;-75
2023/10/27 08:59:10;;;;;;;0.22;0.22;;;;;;;;;;5055525;28;20024;-75
2023/10/27 09:01:36;;;;;;;0.40;0.40;;;;;;;;;;5055426;28;20111;-76
2023/10/27 09:04:06;;;;;;;0.90;0.60;;;;;;;;;;5073866;28;20024;-75
2023/10/27 09:06:32;;;;;;;0.30;0.30;;;;;;;;;;5056013;28;20028;-75
2023/10/27 09:08:58;;;;;;;2.30;0.40;;;;;;;;;;5074851;28;20024;-76
2023/10/27 09:11:24;;;;;;;0.30;0.30;;;;;;;;;;5075777;28;20077;-76
2023/10/27 09:13:50;;;;;;;1.77;0.43;;;;;;;;;;5074855;28;20074;-76
2023/10/27 09:16:26;;;;;;;0.63;0.50;;;;;;;;;;5077379;28;20064;-75
2023/10/27 09:18:55;;;;;;;0.40;0.40;;;;;;;;;;5061417;28;20082;-74
2023/10/27 09:21:31;;;;;;;1.23;0.40;;;;;;;;;;5081634;28;20028;-75
2023/10/27 09:23:57;;;;;;;0.82;0.40;;;;;;;;;;5082609;28;20032;-75
2023/10/27 09:26:28;;;;;;;1.10;0.88;;;;;;;;;;5091532;28;20426;-75
2023/10/27 09:29:03;;;;;;;1.20;0.65;;;;;;;;;;5087188;28;20115;-76
2023/10/27 09:31:35;;;;;;;1.67;0.90;;;;;;;;;;5081093;28;20021;-76
2023/10/27 09:34:01;;;;;;;;;;;;;;;;;;5061730;28;20024;-77
2023/10/27 09:36:27;;;;;;;2.53;0.50;;;;;;;;;;5073142;28;19987;-76
2023/10/27 09:38:55;;;;;;;1.63;0.50;;;;;;;;;;5054842;28;20028;-75
2023/10/27 09:41:21;;;;;;;0.73;0.50;;;;;;;;;;5073015;28;20025;-76
2023/10/27 09:43:48;;;;;;;1.25;0.50;;;;;;;;;;5072785;28;20028;-76
2023/10/27 09:46:16;;;;;;;1.27;0.35;;;;;;;;;;5073284;28;20028;-75
2023/10/27 09:48:43;;;;;;;0.52;0.50;;;;;;;;;;5038577;28;20029;-76
2023/10/27 09:51:17;;;;;;;0.80;0.77;;;;;;;;;;5073484;28;20032;-77
2023/10/27 09:53:44;;;;;;;1.38;0.60;;;;;;;;;;5073539;28;20487;-75
2023/10/27 09:56:10;;;;;;;1.33;0.57;;;;;;;;;;5081999;28;20510;-76
2023/10/27 09:58:38;;;;;;;0.43;0.43;;;;;;;;;;5070431;28;20090;-75
2023/10/27 10:01:04;;;;;;;1.17;0.70;;;;;;;;;;5073969;28;20027;-75
2023/10/27 10:03:31;;;;;;;0.82;0.50;;;;;;;;;;5074012;28;20016;-76
2023/10/27 10:06:12;;;;;;;1.05;0.65;;;;;;;;;;5073771;28;20032;-76
2023/10/27 10:08:38;;;;;;;1.58;0.70;;;;;;;;;;5073695;28;20505;-76
2023/10/27 10:11:12;;;;;;;0.50;0.50;;;;;;;;;;5073930;28;20078;-76
2023/10/27 10:13:38;;;;;;;1.33;0.40;;;;;;;;;;5073553;28;20418;-76
2023/10/27 10:16:05;;;;;;;1.20;0.60;;;;;;;;;;5073685;28;20021;-75
2023/10/27 10:18:35;;;;;;;1.17;0.65;;;;;;;;;;5074121;28;20024;-74
2023/10/27 10:21:01;;;;;;;1.27;0.52;;;;;;;;;;5073494;28;20032;-76
2023/10/27 10:23:40;;;;;;;1.05;0.50;;;;;;;;;;5073210;28;20036;-75
2023/10/27 10:26:06;;;;;;;1.08;0.47;;;;;;;;;;5062310;28;20059;-76
2023/10/27 10:28:33;;;;;;;0.73;0.40;;;;;;;;;;5075396;28;20032;-76
2023/10/27 10:31:17;;;;;;;0.50;0.45;;;;;;;;;;5057582;28;20082;-76
2023/10/27 10:33:46;;;;;;;1.67;0.70;;;;;;;;;;5073515;28;20032;-75
2023/10/27 10:36:14;;;;;;;1.40;0.38;;;;;;;;;;5073556;28;20024;-76
2023/10/27 10:38:43;;;;;;;1.95;0.63;;;;;;;;;;5075175;28;20016;-74
2023/10/27 10:41:09;;;;;;;1.02;0.50;;;;;;;;;;5077136;28;20025;-76
2023/10/27 10:43:40;;;;;;;2.05;0.85;;;;;;;;;;5077979;28;20080;-76
2023/10/27 10:46:10;;;;;;;1.55;0.60;;;;;;;;;;5058752;28;20059;-76
2023/10/27 10:48:40;;;;;;;0.95;0.50;;;;;;;;;;5076169;28;20376;-76
2023/10/27 10:53:53;;;;;;;2.33;1.15;;;;;;;;;;5076119;28;20040;-75
2023/10/27 10:56:19;;;;;;;6.60;0.98;;;;;;;;;;5077420;28;20467;-77
2023/10/27 10:58:45;;;;;;;1.15;0.75;;;;;;;;;;5088429;28;20272;-77
2023/10/27 11:01:19;;;;;;;0.68;0.50;;;;;;;;;;5082741;28;20468;-77
2023/10/27 11:03:48;;;;;;;0.63;0.50;;;;;;;;;;5058180;28;20036;-77
2023/10/27 11:06:14;;;;;;;1.05;0.40;;;;;;;;;;5076601;28;20108;-77
2023/10/27 11:08:41;;;;;;;2.17;0.60;;;;;;;;;;5064517;28;20029;-77
2023/10/27 11:11:08;;;;;;;1.45;0.80;;;;;;;;;;5077087;28;20033;-77
2023/10/27 11:13:41;;;;;;;0.60;0.47;;;;;;;;;;5076161;28;20017;-77
2023/10/27 11:18:59;;;;;;;1.15;0.50;;;;;;;;;;5074409;28;20490;-76
2023/10/27 11:21:27;;;;;;;1.40;0.43;;;;;;;;;;5072280;28;20016;-76
2023/10/27 11:23:54;;;;;;;1.13;0.60;;;;;;;;;;5072511;28;20142;-77
2023/10/27 11:26:21;;;;;;;3.08;0.90;;;;;;;;;;5075633;28;20075;-76
2023/10/27 11:28:48;;;;;;;1.42;0.60;;;;;;;;;;5053828;28;20028;-76
2023/10/27 11:31:23;;;;;;;1.85;0.82;;;;;;;;;;5059935;28;20017;-76
2023/10/27 11:33:59;;;;;;;1.42;0.55;;;;;;;;;;5070558;28;20008;-76
2023/10/27 11:36:33;;;;;;;1.67;0.50;;;;;;;;;;5077407;28;20020;-75
2023/10/27 11:39:18;;;;;;;1.08;0.55;;;;;;;;;;5058310;28;20379;-75
2023/10/27 11:42:04;;;;;;;2.17;0.95;;;;;;;;;;5076448;28;20044;-75
2023/10/27 11:44:32;;;;;;;0.95;0.50;;;;;;;;;;5061202;28;20036;-76
2023/10/27 11:47:01;;;;;;;1.88;0.50;;;;;;;;;;5075205;28;20020;-75
2023/10/27 11:49:28;;;;;;;0.40;0.40;;;;;;;;;;5057525;28;20483;-76
2023/10/27 11:51:55;;;;;;;0.70;0.52;;;;;;;;;;5076640;28;20507;-76
2023/10/27 11:54:23;;;;;;;3.10;0.73;;;;;;;;;;5083231;28;20108;-76
2023/10/27 11:56:49;;;;;;;1.85;0.70;;;;;;;;;;5079331;28;20016;-75
2023/10/27 11:59:16;;;;;;;3.40;0.63;;;;;;;;;;5096941;28;20031;-76
2023/10/27 12:01:43;;;;;;;3.35;0.68;;;;;;;;;;5093877;28;20029;-76
2023/10/27 12:04:12;;;;;;;1.83;0.70;;;;;;;;;;5093650;28;20082;-75
2023/10/27 12:06:41;;;;;;;3.40;0.80;;;;;;;;;;5075172;28;20039;-75
2023/10/27 12:09:08;;;;;;;4.65;0.60;;;;;;;;;;5056460;28;20119;-75
2023/10/27 12:11:37;;;;;;;1.25;0.50;;;;;;;;;;5073426;28;20092;-75
2023/10/27 12:14:03;;;;;;;1.20;0.35;;;;;;;;;;5072198;28;20499;-75
2023/10/27 12:16:29;;;;;;;2.88;0.60;;;;;;;;;;5076599;28;20111;-75
2023/10/27 12:18:56;;;;;;;0.93;0.68;;;;;;;;;;5071952;28;20112;-76
2023/10/27 12:21:23;;;;;;;1.52;0.60;;;;;;;;;;5075220;28;20042;-76
2023/10/27 12:23:49;;;;;;;1.67;0.65;;;;;;;;;;5070650;28;20046;-77
2023/10/27 12:26:15;;;;;;;1.20;0.70;;;;;;;;;;5070908;28;20036;-75
2023/10/27 12:28:42;;;;;;;2.28;0.70;;;;;;;;;;5082352;28;20027;-75
2023/10/27 12:31:08;;;;;;;1.55;0.57;;;;;;;;;;5072169;28;20012;-75
2023/10/27 12:33:34;;;;;;;1.42;0.50;;;;;;;;;;5055879;28;20123;-76
2023/10/27 12:36:10;;;;;;;1.65;1.00;;;;;;;;;;5056255;28;20025;-76
2023/10/27 12:38:36;;;;;;;9.20;4.03;;;;;;;;;;5075135;28;20025;-76
2023/10/27 12:41:03;;;;;;;3.78;0.68;;;;;;;;;;5075348;28;20027;-75
2023/10/27 12:43:29;;;;;;;5.07;2.50;;;;;;;;;;5074173;28;20024;-75
2023/10/27 12:45:55;;;;;;;5.88;1.85;;;;;;;;;;5073365;28;20514;-76
2023/10/27 12:48:21;;;;;;;1.65;0.80;;;;;;;;;;5073892;28;20120;-76
2023/10/27 12:50:47;;;;;;;0.75;0.40;;;;;;;;;;5074746;28;20028;-75
2023/10/27 12:53:14;;;;;;;1.73;0.50;;;;;;;;;;5073762;28;20013;-75
2023/10/27 12:55:40;;;;;;;0.65;0.65;;;;;;;;;;5056434;28;20025;-77
2023/10/27 12:58:08;;;;;;;1.85;0.50;;;;;;;;;;5074564;28;20017;-75
2023/10/27 13:00:35;;;;;;;2.72;0.43;;;;;;;;;;5083263;28;20114;-76
2023/10/27 13:03:01;;;;;;;1.88;1.05;;;;;;;;;;5077391;28;20041;-78
2023/10/27 13:05:27;;;;;;;0.85;0.55;;;;;;;;;;5063836;28;20047;-76
2023/10/27 13:07:54;;;;;;;1.02;0.57;;;;;;;;;;5085247;28;20035;-77
2023/10/27 13:10:22;;;;;;;0.50;0.50;;;;;;;;;;5056792;28;20376;-75
2023/10/27 13:12:48;;;;;;;1.95;0.50;;;;;;;;;;5076316;28;20092;-77
2023/10/27 13:15:15;;;;;;;0.70;0.50;;;;;;;;;;5077150;28;20528;-75
2023/10/27 13:17:41;;;;;;;1.17;0.52;;;;;;;;;;5075952;28;20032;-77
2023/10/27 13:20:09;;;;;;;1.35;0.85;;;;;;;;;;5075244;28;20463;-76
2023/10/27 13:22:35;;;;;;;1.73;0.95;;;;;;;;;;5055749;28;20503;-76
2023/10/27 13:25:02;;;;;;;1.17;0.65;;;;;;;;;;5054993;28;20036;-77
2023/10/27 13:27:30;;;;;;;0.98;0.45;;;;;;;;;;5072392;28;20123;-75
2023/10/27 13:30:04;;;;;;;0.80;0.30;;;;;;;;;;5069516;28;20183;-75
2023/10/27 13:32:30;;;;;;;0.85;0.47;;;;;;;;;;5067468;28;20014;-75
2023/10/27 13:34:56;;;;;;;0.38;0.28;;;;;;;;;;5069851;28;20062;-76
2023/10/27 13:37:23;;;;;;;0.70;0.47;;;;;;;;;;5051305;28;20028;-75
2023/10/27 13:39:49;;;;;;;0.85;0.40;;;;;;;;;;5055701;28;20025;-76
2023/10/27 13:42:15;;;;;;;0.50;0.47;;;;;;;;;;5073444;28;20021;-76
2023/10/27 13:44:42;;;;;;;2.63;0.60;;;;;;;;;;5073811;28;20035;-74
2023/10/27 13:47:09;;;;;;;1.00;0.40;;;;;;;;;;5049653;28;20133;-77
2023/10/27 13:49:36;;;;;;;1.80;0.40;;;;;;;;;;5073784;28;20036;-77
2023/10/27 13:52:03;;;;;;;0.90;0.20;;;;;;;;;;5073517;28;20539;-76
2023/10/27 13:54:29;;;;;;;0.40;0.40;;;;;;;;;;5070839;28;20021;-75
2023/10/27 13:56:56;;;;;;;0.80;0.30;;;;;;;;;;5051373;28;20024;-76
2023/10/27 13:59:23;;;;;;;0.35;0.30;;;;;;;;;;5071529;28;20551;-75
2023/10/27 14:01:49;;;;;;;1.13;0.38;;;;;;;;;;5074916;28;20021;-76
2023/10/27 14:04:15;;;;;;;0.22;0.22;;;;;;;;;;5076813;28;20160;-76
2023/10/27 14:06:47;;;;;;;0.40;0.40;;;;;;;;;;5075800;28;20043;-76
2023/10/27 14:09:17;;;;;;;1.00;0.60;;;;;;;;;;5059919;28;20088;-76
2023/10/27 14:11:45;;;;;;;0.57;0.30;;;;;;;;;;5078348;28;20028;-74
2023/10/27 14:14:12;;;;;;;3.90;0.40;;;;;;;;;;5065130;28;20024;-75
2023/10/27 14:16:38;;;;;;;0.45;0.45;;;;;;;;;;5084820;28;20055;-76
2023/10/27 14:19:04;;;;;;;0.30;0.30;;;;;;;;;;5065015;28;20028;-75
2023/10/27 14:21:36;;;;;;;0.55;0.32;;;;;;;;;;5081703;28;20024;-76
2023/10/27 14:24:03;;;;;;;0.65;0.30;;;;;;;;;;5079758;28;20044;-76
2023/10/27 14:26:29;;;;;;;0.93;0.50;;;;;;;;;;5067351;28;20057;-74
2023/10/27 14:28:56;;;;;;;0.70;0.43;;;;;;;;;;5080911;28;20383;-76
2023/10/27 14:31:22;;;;;;;0.43;0.30;;;;;;;;;;5087388;28;20013;-76
2023/10/27 14:33:48;;;;;;;1.08;0.60;;;;;;;;;;5076877;28;20099;-79
2023/10/27 14:36:14;;;;;;;1.00;0.50;;;;;;;;;;5091374;28;20047;-77
2023/10/27 14:38:40;;;;;;;0.98;0.47;;;;;;;;;;5089552;28;20024;-76
2023/10/27 14:41:11;;;;;;;0.55;0.43;;;;;;;;;;5081998;28;20033;-77
2023/10/27 14:43:40;;;;;;;0.47;0.40;;;;;;;;;;5088201;28;20487;-76
2023/10/27 14:46:07;;;;;;;0.68;0.43;;;;;;;;;;5088912;28;20032;-75
2023/10/27 14:48:34;;;;;;;1.80;0.70;;;;;;;;;;5070997;28;20384;-76